Time;durP1;ratioP1;P1;durP2;ratioP2;P2;SDS_P1;SDS_P2;PMS_P1;PMS_P2;Temp;Humidity;BMP_temperature;BMP_pressure;BME280_temperature;BME280_humidity;BME280_pressure;Samples;Min_cycle;Max_cycle;Signal;HPM_P1;HPM_P2
2022/07/27 00:00:04;;;;;;;3.07;1.60;;;;;;;26.18;48.52;100246.44;4992407;28;20170;-63
2022/07/27 00:02:30;;;;;;;3.10;1.87;;;;;;;26.18;48.51;100241.47;4993166;28;20225;-63
2022/07/27 00:04:55;;;;;;;3.30;2.03;;;;;;;26.18;48.58;100250.16;4992883;28;20433;-63
2022/07/27 00:07:21;;;;;;;2.97;1.70;;;;;;;26.17;48.95;100251.41;4990748;28;20167;-63
2022/07/27 00:09:49;;;;;;;3.40;1.67;;;;;;;26.18;48.79;100255.94;4991251;28;20184;-63
2022/07/27 00:12:14;;;;;;;3.23;1.60;;;;;;;26.18;48.78;100247.25;4992577;28;20182;-64
2022/07/27 00:14:40;;;;;;;3.30;1.53;;;;;;;26.18;49.12;100250.16;4992225;28;20491;-64
2022/07/27 00:17:05;;;;;;;3.67;2.10;;;;;;;26.18;49.09;100261.72;4991814;28;20653;-63
2022/07/27 00:19:31;;;;;;;3.27;1.83;;;;;;;26.18;49.11;100258.00;4991301;28;20170;-63
2022/07/27 00:21:57;;;;;;;4.47;1.50;;;;;;;26.18;49.01;100255.94;4992230;28;20236;-64
2022/07/27 00:24:23;;;;;;;4.10;1.70;;;;;;;26.19;49.13;100254.69;4991192;28;20563;-63
2022/07/27 00:26:48;;;;;;;4.93;1.80;;;;;;;26.18;49.05;100258.84;4991218;28;20441;-64
2022/07/27 00:29:14;;;;;;;3.20;1.50;;;;;;;26.17;48.93;100265.88;4990902;28;20887;-63
2022/07/27 00:31:39;;;;;;;4.00;1.57;;;;;;;26.16;49.24;100255.56;4991423;28;20182;-63
2022/07/27 00:34:05;;;;;;;5.37;2.00;;;;;;;26.17;48.87;100268.78;4991253;28;20178;-63
2022/07/27 00:36:30;;;;;;;3.43;1.93;;;;;;;26.16;48.80;100257.63;4991700;28;20184;-63
2022/07/27 00:38:55;;;;;;;2.87;1.50;;;;;;;26.16;49.17;100267.16;4990993;28;20222;-63
2022/07/27 00:41:24;;;;;;;4.07;1.73;;;;;;;26.16;49.46;100270.03;4991107;28;20209;-63
2022/07/27 00:43:54;;;;;;;3.00;1.60;;;;;;;26.16;49.60;100267.16;4991092;28;20185;-63
2022/07/27 00:46:19;;;;;;;6.03;1.43;;;;;;;26.17;49.19;100260.09;4991435;28;20446;-63
2022/07/27 00:48:45;;;;;;;4.30;1.77;;;;;;;26.18;49.16;100260.91;4992087;28;20421;-63
2022/07/27 00:51:10;;;;;;;2.77;1.40;;;;;;;26.17;48.99;100257.19;4991554;28;20240;-64
2022/07/27 00:53:36;;;;;;;3.43;1.47;;;;;;;26.17;48.84;100263.00;4990378;28;20190;-64
2022/07/27 00:56:01;;;;;;;4.50;2.00;;;;;;;26.13;48.94;100268.00;4992227;28;20236;-64
2022/07/27 00:58:26;;;;;;;3.70;1.80;;;;;;;26.13;48.99;100253.53;4992165;28;20204;-64
2022/07/27 01:00:52;;;;;;;5.00;2.00;;;;;;;26.13;49.40;100253.53;4991771;28;20201;-63
2022/07/27 01:03:17;;;;;;;3.33;1.37;;;;;;;26.13;49.39;100255.59;4991953;28;20616;-64
2022/07/27 01:05:43;;;;;;;3.27;1.87;;;;;;;26.14;49.15;100254.38;4991770;28;20252;-64
2022/07/27 01:08:10;;;;;;;2.20;1.40;;;;;;;26.14;49.43;100249.38;4991882;28;20173;-63
2022/07/27 01:10:36;;;;;;;3.30;1.40;;;;;;;26.15;49.76;100245.22;4991240;28;20814;-63
2022/07/27 01:13:02;;;;;;;3.73;1.63;;;;;;;26.15;49.45;100253.91;4991783;28;20416;-63
2022/07/27 01:15:27;;;;;;;4.47;2.10;;;;;;;26.15;49.60;100245.22;4966448;28;20194;-63
2022/07/27 01:17:53;;;;;;;4.00;2.03;;;;;;;26.15;49.42;100256.81;4983578;28;20209;-64
2022/07/27 01:20:18;;;;;;;5.73;2.20;;;;;;;26.14;49.64;100251.47;4990429;28;20220;-64
2022/07/27 01:22:43;;;;;;;2.50;1.50;;;;;;;26.13;48.88;100253.53;4991489;28;20641;-64
2022/07/27 01:25:10;;;;;;;4.30;1.57;;;;;;;26.09;48.67;100246.16;4991538;28;20182;-63
2022/07/27 01:27:35;;;;;;;2.90;1.50;;;;;;;26.10;48.72;100250.69;4970387;28;20169;-64
2022/07/27 01:30:01;;;;;;;3.93;1.80;;;;;;;26.07;49.16;100243.69;4973494;28;20426;-63
2022/07/27 01:32:26;;;;;;;2.17;1.33;;;;;;;26.09;49.29;100240.38;4991473;28;20178;-63
2022/07/27 01:34:52;;;;;;;4.47;1.47;;;;;;;26.08;49.48;100238.72;4991258;28;20229;-64
2022/07/27 01:37:17;;;;;;;2.90;1.33;;;;;;;26.07;49.04;100239.97;4988554;28;20204;-63
2022/07/27 01:39:43;;;;;;;4.43;1.80;;;;;;;26.07;48.94;100243.69;4990482;28;20177;-63
2022/07/27 01:42:08;;;;;;;4.30;2.07;;;;;;;26.08;49.41;100235.81;4990959;28;20178;-63
2022/07/27 01:44:34;;;;;;;3.13;1.83;;;;;;;26.07;48.92;100240.81;4991457;28;20220;-63
2022/07/27 01:46:59;;;;;;;3.40;1.37;;;;;;;26.06;49.17;100242.06;4991173;28;20185;-63
2022/07/27 01:49:24;;;;;;;3.50;1.60;;;;;;;26.05;49.55;100237.50;4990765;28;20561;-64
2022/07/27 01:51:50;;;;;;;3.50;2.00;;;;;;;26.08;49.37;100238.72;4991223;28;20651;-63
2022/07/27 01:54:15;;;;;;;3.53;1.83;;;;;;;26.08;49.25;100236.66;4989764;28;20182;-63
2022/07/27 01:56:41;;;;;;;3.50;1.70;;;;;;;26.09;49.53;100228.81;4989835;28;20222;-64
2022/07/27 01:59:06;;;;;;;2.73;1.70;;;;;;;26.08;49.81;100230.88;4989941;28;20205;-64
2022/07/27 02:01:32;;;;;;;8.87;2.03;;;;;;;26.07;49.30;100229.22;4990716;28;20186;-63
2022/07/27 02:03:57;;;;;;;2.77;1.80;;;;;;;26.06;49.46;100218.91;4991164;28;20181;-64
2022/07/27 02:06:23;;;;;;;2.80;1.50;;;;;;;26.05;49.13;100214.34;4990779;28;20229;-63
2022/07/27 02:08:48;;;;;;;3.10;1.47;;;;;;;26.05;49.05;100219.34;4990382;28;20169;-63
2022/07/27 02:13:57;;;;;;;3.70;1.93;;;;;;;25.99;48.80;100224.78;4987634;28;20269;-63
2022/07/27 02:16:23;;;;;;;3.40;1.77;;;;;;;25.99;49.15;100221.88;4990661;28;20872;-63
2022/07/27 02:18:48;;;;;;;6.23;2.30;;;;;;;25.97;48.85;100212.00;4990395;28;20548;-63
2022/07/27 02:21:14;;;;;;;4.43;2.10;;;;;;;25.97;49.20;100218.63;4990109;28;20228;-64
2022/07/27 02:23:39;;;;;;;3.10;1.70;;;;;;;25.97;49.01;100214.91;4973165;28;20177;-63
2022/07/27 02:26:05;;;;;;;2.93;1.70;;;;;;;25.93;49.40;100214.13;4972925;28;20929;-64
2022/07/27 02:28:31;;;;;;;3.20;1.70;;;;;;;25.92;48.95;100212.47;4990865;28;20181;-64
2022/07/27 02:30:56;;;;;;;4.27;1.70;;;;;;;25.91;48.83;100205.91;4989004;28;20231;-63
2022/07/27 02:33:22;;;;;;;3.37;1.50;;;;;;;25.89;48.98;100205.47;4990313;28;20177;-63
2022/07/27 02:35:47;;;;;;;5.20;2.00;;;;;;;25.90;48.83;100212.88;4990461;28;20237;-63
2022/07/27 02:38:13;;;;;;;2.97;1.57;;;;;;;25.90;48.65;100212.06;4990305;28;20205;-63
2022/07/27 02:40:38;;;;;;;3.30;2.00;;;;;;;25.89;48.62;100210.44;4972857;28;20537;-63
2022/07/27 02:43:04;;;;;;;5.00;2.13;;;;;;;25.90;48.84;100217.84;4989992;28;20567;-63
2022/07/27 02:45:29;;;;;;;4.03;1.80;;;;;;;25.88;48.57;100215.41;4990507;28;20185;-63
2022/07/27 02:47:54;;;;;;;2.63;1.60;;;;;;;25.87;48.73;100218.72;4990308;28;20182;-63
2022/07/27 02:50:20;;;;;;;3.33;1.70;;;;;;;25.85;48.86;100224.13;4989756;28;20185;-63
2022/07/27 02:52:45;;;;;;;2.57;1.70;;;;;;;25.85;48.86;100216.25;4990377;28;20607;-64
2022/07/27 02:55:11;;;;;;;4.73;2.23;;;;;;;25.85;48.54;100222.03;4990055;28;20178;-64
2022/07/27 02:57:39;;;;;;;2.40;1.87;;;;;;;25.86;48.40;100223.69;4989951;28;20201;-63
2022/07/27 03:00:10;;;;;;;5.37;2.00;;;;;;;25.87;48.19;100219.53;4990007;28;20178;-63
2022/07/27 03:02:36;;;;;;;5.37;2.10;;;;;;;25.85;48.50;100215.44;4988698;28;20436;-63
2022/07/27 03:05:03;;;;;;;6.03;1.83;;;;;;;25.83;48.42;100221.66;4989078;28;20486;-63
2022/07/27 03:07:28;;;;;;;3.90;2.10;;;;;;;25.83;48.25;100221.66;4987738;28;20629;-63
2022/07/27 03:09:54;;;;;;;3.60;2.10;;;;;;;25.82;48.45;100217.13;4988332;28;20456;-63
2022/07/27 03:12:19;;;;;;;5.80;2.03;;;;;;;25.81;48.39;100227.06;4990051;28;20196;-64
2022/07/27 03:14:45;;;;;;;4.10;1.90;;;;;;;25.83;47.96;100224.56;4990309;28;20177;-63
2022/07/27 03:17:11;;;;;;;3.00;2.00;;;;;;;25.83;47.94;100224.56;4985731;28;20206;-63
2022/07/27 03:19:36;;;;;;;3.90;1.60;;;;;;;25.83;48.60;100227.44;4971192;28;20429;-63
2022/07/27 03:22:02;;;;;;;2.73;1.90;;;;;;;25.84;48.35;100226.19;4969818;28;20182;-63
2022/07/27 03:24:27;;;;;;;3.60;1.87;;;;;;;25.85;48.37;100224.94;4969120;28;20187;-63
2022/07/27 03:26:52;;;;;;;4.30;1.87;;;;;;;25.86;48.49;100235.28;4975004;28;20265;-63
2022/07/27 03:29:18;;;;;;;4.90;1.80;;;;;;;25.85;48.37;100227.81;4988281;28;20244;-64
2022/07/27 03:31:44;;;;;;;3.57;1.97;;;;;;;25.87;48.16;100227.41;4988916;28;20178;-64
2022/07/27 03:34:09;;;;;;;4.00;1.80;;;;;;;25.86;48.97;100234.44;4988613;28;20683;-63
2022/07/27 03:36:35;;;;;;;2.67;1.50;;;;;;;25.87;48.99;100230.28;4988293;28;20413;-64
2022/07/27 03:39:00;;;;;;;3.03;1.83;;;;;;;25.88;48.65;100231.91;4988097;28;20208;-64
2022/07/27 03:41:26;;;;;;;6.30;1.40;;;;;;;25.87;48.84;100231.13;4985662;28;20170;-63
2022/07/27 03:43:51;;;;;;;10.83;2.40;;;;;;;25.88;48.57;100231.91;4992158;28;20181;-64
2022/07/27 03:46:17;;;;;;;3.17;1.77;;;;;;;25.87;48.67;100215.81;4992102;28;20170;-64
2022/07/27 03:48:42;;;;;;;3.30;1.77;;;;;;;25.86;48.50;100217.91;4991918;28;20588;-63
2022/07/27 03:51:08;;;;;;;3.63;2.10;;;;;;;25.86;48.61;100220.81;4992960;28;20170;-63
2022/07/27 03:53:33;;;;;;;3.37;1.80;;;;;;;25.87;48.59;100228.22;4992961;28;20174;-64
2022/07/27 03:55:58;;;;;;;2.30;1.40;;;;;;;25.86;48.73;100232.38;4993683;28;20189;-64
2022/07/27 03:58:24;;;;;;;7.00;1.80;;;;;;;25.87;48.62;100228.22;4993318;28;20194;-64
2022/07/27 04:00:49;;;;;;;2.83;1.80;;;;;;;25.85;48.47;100224.13;4992807;28;20173;-63
2022/07/27 04:03:16;;;;;;;3.20;2.20;;;;;;;25.84;48.90;100220.41;4992703;28;20182;-63
2022/07/27 04:05:41;;;;;;;4.07;1.83;;;;;;;25.85;48.88;100227.03;4992095;28;20201;-64
2022/07/27 04:08:07;;;;;;;3.83;1.77;;;;;;;25.85;48.80;100227.03;4978469;28;20418;-64
2022/07/27 04:10:32;;;;;;;3.83;2.00;;;;;;;25.85;48.63;100227.03;4972313;28;20178;-63
2022/07/27 04:12:58;;;;;;;3.70;1.87;;;;;;;25.85;48.40;100227.81;4972602;28;20171;-63
2022/07/27 04:15:23;;;;;;;3.17;1.80;;;;;;;25.83;48.62;100215.88;4972250;28;20733;-64
2022/07/27 04:17:49;;;;;;;2.73;1.57;;;;;;;25.84;48.80;100225.38;4982828;28;20198;-64
2022/07/27 04:20:14;;;;;;;3.30;2.07;;;;;;;25.84;49.02;100223.28;4992142;28;20216;-63
2022/07/27 04:22:40;;;;;;;3.57;1.97;;;;;;;25.84;49.10;100220.41;4992226;28;20261;-63
2022/07/27 04:25:05;;;;;;;4.10;1.70;;;;;;;25.85;49.01;100224.94;4992576;28;20181;-64
2022/07/27 04:27:31;;;;;;;4.67;1.80;;;;;;;25.85;49.15;100233.59;4992792;28;20232;-64
2022/07/27 04:29:56;;;;;;;5.30;1.80;;;;;;;25.85;48.94;100227.03;4991955;28;20178;-63
2022/07/27 04:32:22;;;;;;;5.70;2.13;;;;;;;25.85;49.02;100232.81;4992058;28;20264;-63
2022/07/27 04:34:48;;;;;;;5.47;1.97;;;;;;;25.85;48.80;100233.59;4991898;28;20237;-63
2022/07/27 04:37:13;;;;;;;4.10;2.23;;;;;;;25.83;48.81;100224.56;4991960;28;20562;-64
2022/07/27 04:39:38;;;;;;;3.87;1.50;;;;;;;25.82;48.70;100224.97;4992236;28;20182;-64
2022/07/27 04:42:04;;;;;;;2.97;2.00;;;;;;;25.81;48.48;100232.03;4992339;28;20236;-63
2022/07/27 04:44:29;;;;;;;5.27;1.90;;;;;;;25.82;48.65;100228.72;4992663;28;20182;-63
2022/07/27 04:46:55;;;;;;;3.87;1.90;;;;;;;25.82;48.95;100228.72;4992194;28;20186;-63
2022/07/27 04:49:20;;;;;;;3.27;1.60;;;;;;;25.83;48.86;100226.63;4991432;28;20220;-63
2022/07/27 04:51:46;;;;;;;5.30;2.17;;;;;;;25.84;48.39;100228.28;4992314;28;20625;-64
2022/07/27 04:54:11;;;;;;;3.37;2.17;;;;;;;25.81;48.96;100229.97;4991271;28;20201;-64
2022/07/27 04:56:37;;;;;;;3.60;1.87;;;;;;;25.80;49.13;100224.59;4973930;28;20186;-64
2022/07/27 04:59:02;;;;;;;4.60;2.20;;;;;;;25.79;49.23;100234.53;4991100;28;20653;-64
2022/07/27 05:01:27;;;;;;;5.23;2.10;;;;;;;25.79;48.72;100228.75;4989982;28;20185;-64
2022/07/27 05:03:53;;;;;;;3.50;1.60;;;;;;;25.79;48.68;100229.56;4990699;28;20178;-64
2022/07/27 05:06:18;;;;;;;3.57;1.97;;;;;;;25.80;48.81;100244.84;4990616;28;20178;-63
2022/07/27 05:08:44;;;;;;;2.87;1.90;;;;;;;25.78;48.66;100241.56;4990368;28;20430;-64
2022/07/27 05:11:09;;;;;;;2.10;1.60;;;;;;;25.78;49.12;100245.28;4991367;28;20708;-64
2022/07/27 05:13:38;;;;;;;4.90;2.07;;;;;;;25.77;48.66;100251.50;4988146;28;20222;-63
2022/07/27 05:16:05;;;;;;;6.27;2.10;;;;;;;25.78;48.54;100259.75;4991608;28;20564;-64
2022/07/27 05:18:31;;;;;;;4.53;1.60;;;;;;;25.77;49.15;100261.00;4990953;28;20555;-64
2022/07/27 05:20:56;;;;;;;4.07;1.93;;;;;;;25.72;48.63;100251.97;4993934;28;20466;-64
2022/07/27 05:23:22;;;;;;;2.83;1.67;;;;;;;25.72;49.11;100254.84;4991403;28;20525;-64
2022/07/27 05:25:47;;;;;;;4.47;1.87;;;;;;;25.74;48.58;100258.16;4990866;28;20221;-63
2022/07/27 05:28:12;;;;;;;2.60;1.80;;;;;;;25.72;48.85;100252.78;4990167;28;20185;-63
2022/07/27 05:30:38;;;;;;;3.03;1.70;;;;;;;25.73;48.68;100253.59;4991057;28;20216;-64
2022/07/27 05:33:03;;;;;;;3.53;1.43;;;;;;;25.69;48.81;100253.66;4991330;28;20626;-63
2022/07/27 05:35:29;;;;;;;3.67;2.10;;;;;;;25.66;48.95;100253.69;4991199;28;20994;-64
2022/07/27 05:37:54;;;;;;;2.77;1.63;;;;;;;25.67;48.99;100267.72;4990907;28;20555;-64
2022/07/27 05:40:19;;;;;;;3.60;1.90;;;;;;;25.65;48.95;100267.31;4990886;28;20185;-63
2022/07/27 05:42:45;;;;;;;3.57;2.20;;;;;;;25.65;48.95;100260.72;4987998;28;20273;-64
2022/07/27 05:45:10;;;;;;;4.80;2.30;;;;;;;25.59;48.46;100259.56;4991047;28;20177;-64
2022/07/27 05:47:36;;;;;;;2.30;1.67;;;;;;;25.63;48.93;100257.44;4990797;28;20208;-63
2022/07/27 05:50:05;;;;;;;3.23;2.27;;;;;;;25.63;48.78;100255.38;4990915;28;20312;-64
2022/07/27 05:52:31;;;;;;;4.03;2.00;;;;;;;25.65;48.50;100258.63;4991135;28;20505;-64
2022/07/27 05:54:56;;;;;;;3.50;2.10;;;;;;;25.61;48.91;100263.66;4990833;28;20429;-66
2022/07/27 05:57:22;;;;;;;5.20;1.93;;;;;;;25.19;49.87;100269.03;4993749;28;20209;-63
2022/07/27 05:59:47;;;;;;;5.30;2.13;;;;;;;25.08;51.29;100269.13;5009434;28;20272;-63
2022/07/27 06:02:13;;;;;;;8.10;3.03;;;;;;;25.25;53.00;100271.06;4981864;28;20190;-64
2022/07/27 06:04:38;;;;;;;12.90;3.60;;;;;;;25.47;52.32;100274.56;4981487;28;20196;-63
2022/07/27 06:09:48;;;;;;;8.77;2.73;;;;;;;25.22;52.03;100280.56;4979743;28;20201;-64
2022/07/27 06:12:13;;;;;;;16.00;3.33;;;;;;;24.92;53.80;100280.41;4981716;28;20442;-65
2022/07/27 06:14:39;;;;;;;14.10;3.67;;;;;;;25.06;52.55;100277.41;4982327;28;20197;-64
2022/07/27 06:17:06;;;;;;;7.90;2.57;;;;;;;24.88;52.46;100288.28;4984911;28;20652;-64
2022/07/27 06:19:31;;;;;;;6.57;2.23;;;;;;;24.99;52.71;100291.91;4989641;28;20189;-64
2022/07/27 06:21:57;;;;;;;4.47;2.13;;;;;;;24.68;53.46;100297.94;4990356;28;20448;-64
2022/07/27 06:24:22;;;;;;;6.40;2.03;;;;;;;24.59;53.25;100298.38;4990037;28;20186;-64
2022/07/27 06:26:47;;;;;;;6.30;1.83;;;;;;;24.67;52.78;100300.00;4990055;28;20240;-65
2022/07/27 06:29:13;;;;;;;3.80;1.73;;;;;;;24.78;53.59;100302.81;4989840;28;20182;-65
2022/07/27 06:31:39;;;;;;;3.90;2.00;;;;;;;24.64;52.89;100311.56;4989203;28;20548;-64
2022/07/27 06:34:04;;;;;;;3.07;1.53;;;;;;;24.59;53.32;100304.16;4989119;28;20533;-64
2022/07/27 06:36:29;;;;;;;6.13;1.57;;;;;;;24.88;52.97;100317.16;4981596;28;20685;-65
2022/07/27 06:38:55;;;;;;;3.60;1.50;;;;;;;25.02;52.65;100313.34;4989724;28;20212;-64
2022/07/27 06:41:20;;;;;;;4.40;1.80;;;;;;;24.84;52.78;100309.78;4990042;28;20186;-64
2022/07/27 06:43:46;;;;;;;5.90;1.90;;;;;;;24.53;52.42;100305.81;4989922;28;20186;-64
2022/07/27 06:46:12;;;;;;;8.07;2.63;;;;;;;24.57;53.32;100300.00;4971658;28;20679;-64
2022/07/27 06:48:40;;;;;;;7.73;2.70;;;;;;;24.82;53.59;100307.31;4988181;28;20185;-64
2022/07/27 06:51:05;;;;;;;4.80;2.30;;;;;;;24.51;53.00;100298.81;4973650;28;20461;-63
2022/07/27 06:53:31;;;;;;;7.57;1.97;;;;;;;24.55;53.33;100303.34;4989886;28;20466;-64
2022/07/27 06:56:02;;;;;;;5.90;1.93;;;;;;;24.40;52.63;100309.63;4972834;28;20182;-64
2022/07/27 06:58:30;;;;;;;5.03;2.23;;;;;;;24.62;52.46;100302.50;4990006;28;20213;-64
2022/07/27 07:00:56;;;;;;;3.73;1.70;;;;;;;24.43;52.88;100305.91;4971543;28;20428;-65
2022/07/27 07:03:22;;;;;;;5.20;1.97;;;;;;;24.60;52.68;100305.81;4982529;28;20470;-63
2022/07/27 07:05:47;;;;;;;4.33;2.17;;;;;;;24.85;53.08;100306.47;4983543;28;20487;-64
2022/07/27 07:08:13;;;;;;;3.37;2.00;;;;;;;24.55;52.23;100308.28;4985234;28;20190;-63
2022/07/27 07:10:39;;;;;;;6.83;2.43;;;;;;;24.50;53.75;100306.69;4981921;28;20189;-63
2022/07/27 07:13:05;;;;;;;4.37;1.87;;;;;;;24.59;53.25;100315.69;4973675;28;20920;-63
2022/07/27 07:15:30;;;;;;;3.80;1.80;;;;;;;24.90;52.88;100320.47;4970763;28;20429;-63
2022/07/27 07:17:56;;;;;;;3.47;1.80;;;;;;;25.08;52.04;100309.56;4973433;28;20214;-63
2022/07/27 07:20:21;;;;;;;3.87;1.87;;;;;;;25.11;51.68;100313.69;4983288;28;20744;-63
2022/07/27 07:22:47;;;;;;;3.00;1.60;;;;;;;25.13;51.53;100305.44;4990026;28;20193;-64
2022/07/27 07:25:12;;;;;;;3.63;1.67;;;;;;;25.03;51.62;100307.13;4956953;28;20186;-64
2022/07/27 07:27:38;;;;;;;2.83;1.60;;;;;;;24.84;51.90;100304.00;4985743;28;20209;-64
2022/07/27 07:30:04;;;;;;;4.80;2.40;;;;;;;24.53;52.48;100305.81;4993504;28;20232;-64
2022/07/27 07:32:29;;;;;;;3.10;1.87;;;;;;;24.69;52.43;100303.25;4973120;28;20205;-65
2022/07/27 07:34:55;;;;;;;6.20;1.73;;;;;;;24.70;51.76;100293.38;4989154;28;20882;-64
2022/07/27 07:37:20;;;;;;;2.80;1.60;;;;;;;24.70;52.25;100286.78;4992354;28;20209;-64
2022/07/27 07:39:46;;;;;;;8.10;1.97;;;;;;;24.89;51.69;100294.88;4991634;28;20181;-64
2022/07/27 07:42:11;;;;;;;4.53;1.67;;;;;;;24.88;51.57;100290.38;4987894;28;20276;-64
2022/07/27 07:44:37;;;;;;;4.23;1.57;;;;;;;24.46;52.27;100290.59;4989526;28;20178;-64
2022/07/27 07:47:02;;;;;;;5.03;1.60;;;;;;;24.81;52.05;100290.41;4956582;28;20186;-65
2022/07/27 07:49:28;;;;;;;2.77;1.77;;;;;;;24.70;52.11;100276.06;4972202;28;20174;-64
2022/07/27 07:51:53;;;;;;;7.43;2.27;;;;;;;24.52;52.56;100281.09;4956865;28;20190;-64
2022/07/27 07:54:18;;;;;;;4.07;1.80;;;;;;;24.62;52.58;100282.28;4970215;28;20179;-64
2022/07/27 07:56:44;;;;;;;4.83;1.70;;;;;;;24.88;51.90;100285.38;4972036;28;20256;-64
2022/07/27 07:59:09;;;;;;;3.73;1.70;;;;;;;24.90;51.93;100280.03;4970789;28;20206;-64
2022/07/27 08:01:35;;;;;;;4.13;1.53;;;;;;;25.00;51.79;100284.91;4985737;28;20194;-64
2022/07/27 08:04:00;;;;;;;4.10;1.50;;;;;;;25.00;51.84;100278.28;4989476;28;20196;-64
2022/07/27 08:06:26;;;;;;;6.37;1.90;;;;;;;24.94;51.73;100280.78;4973499;28;20174;-64
2022/07/27 08:08:51;;;;;;;3.53;1.50;;;;;;;24.99;52.00;100277.44;4981697;28;20229;-64
2022/07/27 08:11:17;;;;;;;4.10;1.70;;;;;;;25.11;51.39;100274.06;4972483;28;20185;-64
2022/07/27 08:13:42;;;;;;;5.40;1.97;;;;;;;25.14;51.39;100278.97;4976361;28;20186;-64
2022/07/27 08:16:07;;;;;;;5.63;2.13;;;;;;;25.22;51.22;100286.34;4990293;28;20186;-64
2022/07/27 08:18:33;;;;;;;8.17;2.20;;;;;;;25.23;51.38;100278.50;4989858;28;20198;-64
2022/07/27 08:20:58;;;;;;;9.03;2.50;;;;;;;25.20;51.94;100277.28;4990680;28;20196;-64
2022/07/27 08:23:25;;;;;;;10.80;2.20;;;;;;;25.25;51.98;100282.63;4974109;28;20185;-64
2022/07/27 08:25:51;;;;;;;9.10;2.27;;;;;;;25.28;51.90;100284.66;4991458;28;20297;-64
2022/07/27 08:28:16;;;;;;;16.40;2.23;;;;;;;25.35;51.62;100280.88;4978539;28;20980;-64
2022/07/27 08:30:42;;;;;;;7.90;2.43;;;;;;;25.34;51.49;100280.03;4990477;28;20178;-63
2022/07/27 08:33:07;;;;;;;5.30;2.10;;;;;;;25.39;51.19;100291.16;4991087;28;20193;-64
2022/07/27 08:35:33;;;;;;;6.10;2.63;;;;;;;25.42;51.06;100281.63;4990409;28;20245;-63
2022/07/27 08:37:59;;;;;;;4.33;2.07;;;;;;;25.42;51.08;100287.41;4991153;28;20663;-64
2022/07/27 08:40:25;;;;;;;3.90;1.70;;;;;;;25.44;51.13;100289.88;4991581;28;20648;-64
2022/07/27 08:42:50;;;;;;;6.83;2.00;;;;;;;25.44;51.38;100287.78;4992012;28;20212;-63
2022/07/27 08:45:17;;;;;;;6.77;2.37;;;;;;;25.46;51.07;100282.41;4991275;28;20931;-63
2022/07/27 08:47:44;;;;;;;3.53;1.80;;;;;;;25.53;50.59;100284.44;4991211;28;20192;-63
2022/07/27 08:50:22;;;;;;;5.40;2.57;;;;;;;25.50;50.78;100288.16;4989565;28;20918;-63
2022/07/27 08:53:02;;;;;;;6.27;2.57;;;;;;;25.45;50.48;100288.63;4991276;28;20432;-64
2022/07/27 08:55:29;;;;;;;7.50;1.97;;;;;;;25.38;50.92;100294.50;4991065;28;20775;-64
2022/07/27 08:57:55;;;;;;;5.03;2.03;;;;;;;25.52;50.58;100288.53;4991337;28;20544;-63
2022/07/27 09:00:21;;;;;;;7.50;2.00;;;;;;;25.54;50.87;100292.66;4991615;28;20487;-64
2022/07/27 09:02:46;;;;;;;7.03;2.10;;;;;;;25.57;50.79;100293.84;4991928;28;20193;-64
2022/07/27 09:05:12;;;;;;;5.50;1.70;;;;;;;25.56;50.73;100289.34;4991439;28;20192;-64
2022/07/27 09:07:37;;;;;;;4.40;2.13;;;;;;;25.56;50.50;100300.91;4991889;28;20178;-63
2022/07/27 09:10:04;;;;;;;10.73;2.10;;;;;;;25.55;50.74;100296.38;4990000;28;20905;-63
2022/07/27 09:12:29;;;;;;;4.30;1.70;;;;;;;25.48;50.54;100297.25;4990333;28;20205;-64
2022/07/27 09:15:24;;;;;;;5.57;2.20;;;;;;;25.56;50.78;100295.13;4974181;28;20437;-64
2022/07/27 09:17:49;;;;;;;3.30;1.90;;;;;;;25.55;49.78;100293.47;4974360;28;20217;-63
2022/07/27 09:20:17;;;;;;;5.53;1.70;;;;;;;25.57;50.56;100297.59;4991054;28;20420;-63
2022/07/27 09:22:46;;;;;;;4.93;2.03;;;;;;;25.66;50.15;100295.00;4973280;28;20188;-63
2022/07/27 09:25:16;;;;;;;3.43;1.47;;;;;;;25.61;50.79;100307.03;4990202;28;20528;-63
2022/07/27 09:27:42;;;;;;;3.00;1.90;;;;;;;25.58;49.83;100298.41;4990589;28;20878;-63
2022/07/27 09:30:09;;;;;;;4.60;2.10;;;;;;;25.60;50.46;100299.63;4990209;28;20962;-63
2022/07/27 09:32:35;;;;;;;4.57;2.20;;;;;;;25.51;50.25;100304.25;4987842;28;20981;-63
2022/07/27 09:35:21;;;;;;;4.00;1.90;;;;;;;25.52;50.26;100292.25;4971633;28;20484;-63
2022/07/27 09:37:46;;;;;;;3.90;1.87;;;;;;;25.54;50.10;100297.63;4970533;28;20665;-64
2022/07/27 09:40:14;;;;;;;5.13;1.90;;;;;;;25.51;50.58;100305.09;4969536;28;20437;-63
2022/07/27 09:42:39;;;;;;;3.40;1.50;;;;;;;25.56;49.77;100295.94;4970619;28;20290;-63
2022/07/27 09:45:25;;;;;;;4.63;1.97;;;;;;;25.45;50.24;100306.81;4970604;28;21081;-63
2022/07/27 09:47:52;;;;;;;3.40;1.70;;;;;;;25.52;49.64;100295.16;4981438;28;20220;-63
2022/07/27 09:50:22;;;;;;;6.60;1.90;;;;;;;25.53;49.83;100296.78;4990688;28;20413;-63
2022/07/27 09:52:48;;;;;;;4.33;1.87;;;;;;;25.52;50.35;100306.72;4990964;28;20433;-63
2022/07/27 09:55:13;;;;;;;4.13;1.70;;;;;;;25.58;50.18;100307.09;4990785;28;20831;-63
2022/07/27 09:57:56;;;;;;;3.83;1.50;;;;;;;25.52;49.92;100305.88;4990776;28;20263;-63
2022/07/27 10:00:21;;;;;;;3.30;1.80;;;;;;;25.59;49.43;100317.41;4990681;28;20235;-63
2022/07/27 10:02:47;;;;;;;3.70;1.80;;;;;;;25.58;50.20;100302.09;4990719;28;20424;-63
2022/07/27 10:05:12;;;;;;;3.70;1.53;;;;;;;25.58;49.84;100316.56;4990713;28;20181;-63
2022/07/27 10:07:38;;;;;;;3.10;1.70;;;;;;;25.57;49.71;100308.31;4973541;28;20170;-64
2022/07/27 10:10:04;;;;;;;3.00;1.20;;;;;;;25.62;49.58;100308.69;4973084;28;20174;-64
2022/07/27 10:12:30;;;;;;;4.50;1.77;;;;;;;25.60;50.12;100305.41;4987626;28;20173;-63
2022/07/27 10:14:55;;;;;;;2.80;1.57;;;;;;;25.53;50.05;100301.78;4990571;28;20182;-63
2022/07/27 10:17:21;;;;;;;6.90;1.93;;;;;;;25.63;50.41;100303.69;4990429;28;20200;-64
2022/07/27 10:19:48;;;;;;;7.97;1.80;;;;;;;25.67;49.72;100296.66;4972895;28;20185;-63
2022/07/27 10:22:14;;;;;;;3.80;1.80;;;;;;;25.70;49.59;100304.44;4990325;28;20523;-63
2022/07/27 10:24:39;;;;;;;3.77;1.73;;;;;;;25.71;49.54;100303.22;4989640;28;20436;-63
2022/07/27 10:27:25;;;;;;;4.67;2.30;;;;;;;25.69;49.65;100305.69;4990728;28;20186;-63
2022/07/27 10:29:50;;;;;;;4.17;1.60;;;;;;;25.76;50.39;100296.13;4990161;28;20203;-64
2022/07/27 10:32:27;;;;;;;8.63;1.57;;;;;;;25.76;49.40;100304.81;4989196;28;20425;-63
2022/07/27 10:34:53;;;;;;;4.27;1.80;;;;;;;25.75;49.65;100298.19;4989169;28;20229;-63
2022/07/27 10:37:26;;;;;;;4.37;2.50;;;;;;;25.68;49.71;100297.44;4989193;28;20420;-64
2022/07/27 10:42:39;;;;;;;2.60;1.53;;;;;;;25.76;49.77;100299.84;4990324;28;20520;-64
2022/07/27 10:45:12;;;;;;;3.03;1.50;;;;;;;25.82;49.72;100297.28;4990534;28;20429;-64
2022/07/27 10:47:41;;;;;;;3.47;1.80;;;;;;;25.80;49.89;100300.63;4990193;28;20180;-63
2022/07/27 10:50:15;;;;;;;3.17;1.40;;;;;;;25.82;49.68;100294.41;4972711;28;20425;-63
2022/07/27 10:52:45;;;;;;;5.33;2.27;;;;;;;25.83;49.41;100302.66;4989318;28;20899;-63
2022/07/27 10:55:28;;;;;;;5.30;2.40;;;;;;;25.83;49.46;100293.97;4989798;28;20484;-63
2022/07/27 10:57:54;;;;;;;4.20;1.80;;;;;;;25.84;49.35;100298.50;4989738;28;20511;-63
2022/07/27 11:00:19;;;;;;;6.53;2.07;;;;;;;25.85;49.76;100294.34;4989995;28;20428;-63
2022/07/27 11:02:45;;;;;;;3.90;2.00;;;;;;;25.84;48.67;100291.91;4990152;28;20421;-63
2022/07/27 11:05:10;;;;;;;3.77;1.70;;;;;;;25.87;49.46;100291.03;4990174;28;20667;-63
2022/07/27 11:07:37;;;;;;;3.70;1.80;;;;;;;25.88;48.82;100286.88;4989959;28;20280;-63
2022/07/27 11:10:03;;;;;;;9.90;1.77;;;;;;;25.87;49.48;100288.16;4980539;28;20261;-64
2022/07/27 11:12:28;;;;;;;5.40;2.17;;;;;;;25.89;48.94;100286.47;4970578;28;20521;-63
2022/07/27 11:14:55;;;;;;;5.80;1.70;;;;;;;25.87;49.02;100282.34;4970981;28;20186;-63
2022/07/27 11:17:28;;;;;;;3.17;1.70;;;;;;;25.81;48.57;100284.94;4977470;28;20197;-63
2022/07/27 11:19:54;;;;;;;4.07;2.00;;;;;;;25.83;49.04;100278.69;4989398;28;20419;-63
2022/07/27 11:22:39;;;;;;;5.33;1.70;;;;;;;25.78;49.07;100285.78;4989909;28;20425;-63
2022/07/27 11:25:05;;;;;;;5.10;1.90;;;;;;;25.76;48.48;100281.66;4990469;28;20409;-63
2022/07/27 11:27:30;;;;;;;3.80;1.83;;;;;;;25.82;49.30;100277.88;4989839;28;20429;-63